createdAt,value
2022-08-07T00:01:44.185Z,65.54
2022-08-07T00:04:28.330Z,65.65
2022-08-07T00:07:09.399Z,65.89
2022-08-07T00:10:04.737Z,66.10
2022-08-07T00:13:52.328Z,66.17
2022-08-07T00:16:31.738Z,66.30
2022-08-07T00:19:21.653Z,66.46
2022-08-07T00:22:03.278Z,66.56
2022-08-07T00:24:44.427Z,66.85
2022-08-07T00:27:22.621Z,67.10
2022-08-07T00:29:57.307Z,67.19
2022-08-07T00:32:32.463Z,67.24
2022-08-07T00:35:29.730Z,67.53
2022-08-07T00:38:31.563Z,67.75
2022-08-07T00:41:10.104Z,67.80
2022-08-07T00:44:02.061Z,68.09
2022-08-07T00:46:44.888Z,68.03
2022-08-07T00:50:20.271Z,68.16
2022-08-07T00:52:28.078Z,68.45
2022-08-07T00:55:00.094Z,68.38
2022-08-07T00:57:59.918Z,68.78
2022-08-07T01:00:31.666Z,68.84
2022-08-07T01:03:14.626Z,68.87
2022-08-07T01:05:54.492Z,69.02
2022-08-07T01:08:38.562Z,69.17
2022-08-07T01:12:04.551Z,69.28
2022-08-07T01:14:10.403Z,69.48
2022-08-07T01:16:52.441Z,69.67
2022-08-07T01:19:53.899Z,69.74
2022-08-07T01:23:00.830Z,69.89
2022-08-07T01:26:01.243Z,70.02
2022-08-07T01:28:34.321Z,70.23
2022-08-07T01:31:41.602Z,70.46
2022-08-07T01:34:15.161Z,70.50
2022-08-07T01:36:58.099Z,70.79
2022-08-07T01:39:40.666Z,70.75
2022-08-07T01:42:57.602Z,70.90
2022-08-07T01:45:54.533Z,71.07
2022-08-07T01:48:32.956Z,71.24
2022-08-07T01:52:03.853Z,71.22
2022-08-07T01:54:36.504Z,71.35
2022-08-07T01:57:29.788Z,71.59
2022-08-07T02:00:14.576Z,71.67
2022-08-07T02:03:12.172Z,71.79
2022-08-07T02:06:01.049Z,71.89
2022-08-07T02:08:42.443Z,72.00
2022-08-07T02:12:03.055Z,72.17
2022-08-07T02:14:45.255Z,72.28
2022-08-07T02:17:31.717Z,72.41
2022-08-07T02:20:17.415Z,72.64
2022-08-07T02:23:23.864Z,72.55
2022-08-07T02:26:31.380Z,72.76
2022-08-07T02:29:02.314Z,72.92
2022-08-07T02:31:40.618Z,72.96
2022-08-07T02:34:17.947Z,72.98
2022-08-07T02:37:08.129Z,73.16
2022-08-07T02:40:30.034Z,73.39
2022-08-07T02:43:39.502Z,73.45
2022-08-07T02:46:18.409Z,73.65
2022-08-07T02:49:00.077Z,73.69
2022-08-07T02:51:52.010Z,73.85
2022-08-07T02:54:27.935Z,73.83
2022-08-07T02:57:30.904Z,73.91
2022-08-07T03:00:39.232Z,74.18
2022-08-07T03:03:50.980Z,74.10
2022-08-07T03:06:44.817Z,74.12
2022-08-07T03:09:52.590Z,74.24
2022-08-07T03:12:36.114Z,74.50
2022-08-07T03:15:47.798Z,74.51
2022-08-07T03:18:36.090Z,74.65
2022-08-07T03:26:09.257Z,74.68
2022-08-07T03:30:12.820Z,74.83
2022-08-07T03:33:40.123Z,74.94
2022-08-07T03:45:43.503Z,75.21
2022-08-07T03:49:02.231Z,75.46
2022-08-07T03:51:55.228Z,75.45
2022-08-07T03:54:54.414Z,75.47
2022-08-07T03:58:33.924Z,75.67
2022-08-07T04:00:36.345Z,75.62
2022-08-07T04:03:11.597Z,75.86
2022-08-07T04:05:46.118Z,75.76
2022-08-07T04:08:31.762Z,76.09
2022-08-07T04:12:25.747Z,75.98
2022-08-07T04:14:11.008Z,76.01
2022-08-07T04:17:21.585Z,76.11
2022-08-07T04:20:19.808Z,76.14
2022-08-07T04:23:07.938Z,76.25
2022-08-07T04:25:55.246Z,76.31
2022-08-07T04:28:28.367Z,76.43
2022-08-07T04:31:10.403Z,76.57
2022-08-07T04:33:56.662Z,76.54
2022-08-07T04:36:43.777Z,76.51
2022-08-07T04:39:49.787Z,76.76
2022-08-07T04:42:34.759Z,76.81
2022-08-07T04:45:11.734Z,76.90
2022-08-07T04:48:11.073Z,76.99
2022-08-07T04:51:18.372Z,76.89
2022-08-07T04:54:05.240Z,77.20
2022-08-07T04:58:12.043Z,77.24
2022-08-07T05:00:14.549Z,77.34
2022-08-07T05:03:00.577Z,77.61
2022-08-07T05:05:53.799Z,77.58
2022-08-07T05:08:59.546Z,77.86
2022-08-07T05:11:57.144Z,77.96
2022-08-07T05:14:58.180Z,78.02
2022-08-07T05:18:01.592Z,78.07
2022-08-07T05:21:00.718Z,78.22
2022-08-07T05:23:39.909Z,78.26
2022-08-07T05:26:23.946Z,78.33
2022-08-07T05:29:05.400Z,78.39
2022-08-07T05:31:53.935Z,78.46
2022-08-07T05:34:41.902Z,78.46
2022-08-07T05:37:47.105Z,78.61
2022-08-07T05:40:54.893Z,78.72
2022-08-07T05:44:07.969Z,78.77
2022-08-07T05:46:52.324Z,78.79
2022-08-07T05:49:40.935Z,78.90
2022-08-07T05:52:32.381Z,78.93
2022-08-07T05:56:03.145Z,79.09
2022-08-07T05:59:10.076Z,79.15
2022-08-07T06:01:50.626Z,79.19
2022-08-07T06:04:30.481Z,79.05
2022-08-07T06:07:23.031Z,79.00
2022-08-07T06:10:11.195Z,78.95
2022-08-07T06:13:16.251Z,78.83
2022-08-07T06:16:10.350Z,78.79
2022-08-07T06:18:57.111Z,78.69
2022-08-07T06:22:15.936Z,78.69
2022-08-07T06:24:53.199Z,78.64
2022-08-07T06:28:00.115Z,78.51
2022-08-07T06:30:50.679Z,78.56
2022-08-07T06:33:40.158Z,78.41
2022-08-07T06:36:34.920Z,78.31
2022-08-07T06:40:12.843Z,78.27
2022-08-07T06:42:39.568Z,78.17
2022-08-07T06:45:24.632Z,77.99
2022-08-07T06:48:02.453Z,77.92
2022-08-07T06:50:54.706Z,77.61
2022-08-07T06:55:29.493Z,77.36
2022-08-07T06:57:14.439Z,77.15
2022-08-07T07:00:18.021Z,76.84
2022-08-07T07:03:00.999Z,76.86
2022-08-07T07:06:03.981Z,76.49
2022-08-07T07:08:46.685Z,76.56
2022-08-07T07:12:08.691Z,76.21
2022-08-07T07:14:26.050Z,76.17
2022-08-07T07:17:39.162Z,75.26
2022-08-07T07:20:39.341Z,75.09
2022-08-07T07:24:08.642Z,74.72
2022-08-07T07:31:02.555Z,74.05
2022-08-07T07:33:37.546Z,73.89
2022-08-07T07:36:20.543Z,73.63
2022-08-07T07:38:58.446Z,73.13
2022-08-07T07:41:50.365Z,72.68
2022-08-07T07:44:50.304Z,72.08
2022-08-07T07:47:24.037Z,70.85
2022-08-07T07:50:34.081Z,69.48
2022-08-07T07:52:51.490Z,67.88
2022-08-07T07:55:27.566Z,66.55
2022-08-07T07:58:09.506Z,65.37
2022-08-07T08:00:53.565Z,63.70
2022-08-07T08:04:09.642Z,62.44
2022-08-07T08:06:29.280Z,60.91
2022-08-07T08:09:07.999Z,59.68
2022-08-07T08:11:59.951Z,58.08
2022-08-07T08:14:36.083Z,56.85
2022-08-07T08:17:57.607Z,54.95
2022-08-07T08:20:17.219Z,53.76
2022-08-07T08:23:14.428Z,53.15
2022-08-07T08:26:07.255Z,51.82
2022-08-07T08:28:44.782Z,49.71
2022-08-07T08:31:29.845Z,49.24
2022-08-07T08:34:04.542Z,48.12
2022-08-07T08:36:46.147Z,46.62
2022-08-07T08:39:18.022Z,45.07
2022-08-07T08:41:58.483Z,43.96
2022-08-07T08:44:44.491Z,44.17
2022-08-07T08:47:25.032Z,43.59
2022-08-07T08:50:06.092Z,41.95
2022-08-07T08:52:54.265Z,41.69
2022-08-07T08:55:55.580Z,41.28
2022-08-07T08:58:34.102Z,39.76
2022-08-07T09:01:15.101Z,39.74
2022-08-07T09:04:00.572Z,40.00
2022-08-07T09:06:42.671Z,39.56
2022-08-07T09:09:41.032Z,39.04
2022-08-07T09:12:31.736Z,39.16
2022-08-07T09:16:25.297Z,40.16
2022-08-07T09:18:36.758Z,40.65
2022-08-07T09:21:58.232Z,40.69
2022-08-07T09:24:58.530Z,40.98
2022-08-07T09:27:30.761Z,39.03
2022-08-07T09:30:08.815Z,37.97
2022-08-07T09:32:59.040Z,38.23
2022-08-07T09:36:03.839Z,38.98
2022-08-07T09:38:49.881Z,40.35
2022-08-07T09:41:43.167Z,40.67
2022-08-07T09:47:25.192Z,40.17
2022-08-07T09:47:58.963Z,38.34
2022-08-07T09:50:47.748Z,38.17
2022-08-07T09:53:26.116Z,37.97
2022-08-07T09:56:41.992Z,36.63
2022-08-07T09:59:46.188Z,35.85
2022-08-07T10:03:08.074Z,35.69
2022-08-07T10:06:17.335Z,34.25
2022-08-07T10:09:13.295Z,31.91
2022-08-07T10:12:15.464Z,30.10
2022-08-07T10:15:08.793Z,29.75
2022-08-07T10:18:10.035Z,28.50
2022-08-07T10:20:55.837Z,27.57
2022-08-07T10:24:05.693Z,26.85
2022-08-07T10:26:58.128Z,25.86
2022-08-07T10:30:01.886Z,25.98
2022-08-07T10:33:07.081Z,27.51
2022-08-07T10:36:17.185Z,27.85
2022-08-07T10:38:59.984Z,27.68
2022-08-07T10:41:52.310Z,27.50
2022-08-07T10:44:38.519Z,26.76
2022-08-07T10:47:51.408Z,27.18
2022-08-07T10:50:29.006Z,29.03
2022-08-07T10:53:12.775Z,28.59
2022-08-07T10:56:02.379Z,28.45
2022-08-07T10:58:59.705Z,28.21
2022-08-07T11:02:05.272Z,27.23
2022-08-07T11:05:10.521Z,25.14
2022-08-07T11:08:11.868Z,25.38
2022-08-07T11:10:59.772Z,25.71
2022-08-07T11:14:44.469Z,25.57
2022-08-07T11:17:07.372Z,26.24
2022-08-07T11:19:47.008Z,27.10
2022-08-07T11:22:37.215Z,27.72
2022-08-07T11:25:24.723Z,28.55
2022-08-07T11:28:04.492Z,28.22
2022-08-07T11:30:46.842Z,28.37
2022-08-07T11:33:53.994Z,27.18
2022-08-07T11:36:45.304Z,27.98
2022-08-07T11:39:56.832Z,28.97
2022-08-07T11:42:31.607Z,28.82
2022-08-07T11:45:20.556Z,28.28
2022-08-07T11:48:34.195Z,27.71
2022-08-07T11:51:44.945Z,25.90
2022-08-07T11:54:33.118Z,23.98
2022-08-07T11:57:18.991Z,24.50
2022-08-07T12:00:11.996Z,25.63
2022-08-07T12:03:41.566Z,25.86
2022-08-07T12:06:50.744Z,24.77
2022-08-07T12:09:35.563Z,23.69
2022-08-07T12:12:13.987Z,22.31
2022-08-07T12:14:56.405Z,22.17
2022-08-07T12:17:59.661Z,21.74
2022-08-07T12:20:46.460Z,21.43
2022-08-07T12:24:05.893Z,20.69
2022-08-07T12:26:40.750Z,21.86
2022-08-07T12:29:38.618Z,22.75
2022-08-07T12:32:16.891Z,23.77
2022-08-07T12:34:56.711Z,24.66
2022-08-07T12:38:11.610Z,25.22
2022-08-07T12:40:46.606Z,26.70
2022-08-07T12:44:03.749Z,27.82
2022-08-07T12:46:37.301Z,28.67
2022-08-07T12:49:39.589Z,28.82
2022-08-07T12:52:29.245Z,26.51
2022-08-07T12:55:18.189Z,25.07
2022-08-07T12:58:00.820Z,23.24
2022-08-07T13:00:50.156Z,22.40
2022-08-07T13:04:03.203Z,22.27
2022-08-07T13:07:01.924Z,21.46
2022-08-07T13:10:20.869Z,21.06
2022-08-07T13:13:08.265Z,21.13
2022-08-07T13:15:58.780Z,22.24
2022-08-07T13:18:44.769Z,22.93
2022-08-07T13:21:51.164Z,21.74
2022-08-07T13:24:33.305Z,20.78
2022-08-07T13:27:13.050Z,20.78
2022-08-07T13:29:58.082Z,20.42
2022-08-07T13:32:41.235Z,19.78
2022-08-07T13:35:22.269Z,19.24
2022-08-07T13:38:01.208Z,19.60
2022-08-07T13:40:42.361Z,19.40
2022-08-07T13:43:21.719Z,20.00
2022-08-07T13:46:12.489Z,20.06
2022-08-07T13:48:58.606Z,20.09
2022-08-07T13:52:22.598Z,19.64
2022-08-07T13:54:40.826Z,19.87
2022-08-07T13:57:38.234Z,20.06
2022-08-07T14:00:26.648Z,20.58
2022-08-07T14:03:00.943Z,20.65
2022-08-07T14:05:38.090Z,20.90
2022-08-07T14:08:26.807Z,20.77
2022-08-07T14:11:15.395Z,20.54
2022-08-07T14:13:56.200Z,20.65
2022-08-07T14:16:33.068Z,20.70
2022-08-07T14:19:17.650Z,20.83
2022-08-07T14:22:12.467Z,21.23
2022-08-07T14:24:53.534Z,21.80
2022-08-07T14:30:32.557Z,23.17
2022-08-07T14:33:06.685Z,24.03
2022-08-07T14:35:45.141Z,25.30
2022-08-07T14:38:31.250Z,25.72
2022-08-07T14:47:08.654Z,25.74
2022-08-07T14:49:57.513Z,25.29
2022-08-07T14:52:37.785Z,25.89
2022-08-07T14:55:17.775Z,26.51
2022-08-07T14:57:58.739Z,27.38
2022-08-07T15:00:36.304Z,27.73
2022-08-07T15:03:19.779Z,27.65
2022-08-07T15:06:04.085Z,27.71
2022-08-07T15:08:49.950Z,27.90
2022-08-07T15:11:53.806Z,28.03
2022-08-07T15:14:32.075Z,28.32
2022-08-07T15:17:18.196Z,28.54
2022-08-07T15:20:31.381Z,28.35
2022-08-07T15:23:00.305Z,27.87
2022-08-07T15:25:56.428Z,27.89
2022-08-07T15:28:41.076Z,28.23
2022-08-07T15:31:57.897Z,28.31
2022-08-07T15:34:18.971Z,28.34
2022-08-07T15:37:02.942Z,28.46
2022-08-07T15:42:52.374Z,28.64
2022-08-07T15:45:58.322Z,28.76
2022-08-07T15:48:36.774Z,29.15
2022-08-07T15:54:25.338Z,29.60
2022-08-07T15:57:02.442Z,29.66
2022-08-07T15:59:38.935Z,29.69
2022-08-07T16:02:15.833Z,29.74
2022-08-07T16:04:50.815Z,29.70
2022-08-07T16:08:29.181Z,29.91
2022-08-07T16:10:26.643Z,30.51
2022-08-07T16:13:57.971Z,31.09
2022-08-07T16:16:47.884Z,31.46
2022-08-07T16:19:59.466Z,31.92
2022-08-07T16:22:55.363Z,32.39
2022-08-07T16:25:53.025Z,33.00
2022-08-07T16:30:06.569Z,33.00
2022-08-07T16:31:57.213Z,33.27
2022-08-07T16:34:48.508Z,32.74
2022-08-07T16:38:05.229Z,32.84
2022-08-07T16:41:02.299Z,32.70
2022-08-07T16:44:04.102Z,32.77
2022-08-07T16:47:18.828Z,33.03
2022-08-07T16:50:20.440Z,33.21
2022-08-07T16:54:02.412Z,33.54
2022-08-07T16:56:37.549Z,34.27
2022-08-07T16:59:23.866Z,34.43
2022-08-07T17:02:03.665Z,34.64
2022-08-07T17:04:51.176Z,34.87
2022-08-07T17:07:55.430Z,35.36
2022-08-07T17:10:38.571Z,34.78
2022-08-07T17:14:17.976Z,34.86
2022-08-07T17:16:55.578Z,35.32
2022-08-07T17:20:02.380Z,35.17
2022-08-07T17:22:37.987Z,35.20
2022-08-07T17:25:20.285Z,35.14
2022-08-07T17:28:19.858Z,35.24
2022-08-07T17:31:16.311Z,35.38
2022-08-07T17:34:15.232Z,35.57
2022-08-07T17:37:00.008Z,35.51
2022-08-07T17:40:07.953Z,35.69
2022-08-07T17:42:59.123Z,35.36
2022-08-07T17:45:42.243Z,35.15
2022-08-07T17:48:31.257Z,35.15
2022-08-07T17:51:11.570Z,35.07
2022-08-07T17:54:06.566Z,34.78
2022-08-07T17:56:50.012Z,35.13
2022-08-07T17:59:35.447Z,35.61
2022-08-07T18:02:12.791Z,35.83
2022-08-07T18:05:20.759Z,35.74
2022-08-07T18:08:15.404Z,35.70
2022-08-07T18:12:07.026Z,35.43
2022-08-07T18:13:50.981Z,35.30
2022-08-07T18:16:34.246Z,35.26
2022-08-07T18:21:06.660Z,35.38
2022-08-07T18:22:33.913Z,35.64
2022-08-07T18:25:23.869Z,35.97
2022-08-07T18:28:21.534Z,36.29
2022-08-07T18:31:10.222Z,36.52
2022-08-07T18:34:35.748Z,36.94
2022-08-07T18:38:55.182Z,36.99
2022-08-07T18:40:42.453Z,37.44
2022-08-07T18:43:36.757Z,37.70
2022-08-07T18:46:27.328Z,37.73
2022-08-07T18:50:31.385Z,37.86
2022-08-07T18:52:34.631Z,38.16
2022-08-07T18:55:42.331Z,38.27
2022-08-07T18:58:22.365Z,38.50
2022-08-07T19:01:05.863Z,38.54
2022-08-07T19:03:52.119Z,38.69
2022-08-07T19:06:38.132Z,38.87
2022-08-07T19:09:55.595Z,39.19
2022-08-07T19:12:19.906Z,39.27
2022-08-07T19:16:02.837Z,39.52
2022-08-07T19:18:34.502Z,39.55
2022-08-07T19:21:43.803Z,39.82
2022-08-07T19:24:30.130Z,40.01
2022-08-07T19:28:29.287Z,40.22
2022-08-07T19:31:05.748Z,40.45
2022-08-07T19:33:00.254Z,40.70
2022-08-07T19:35:36.006Z,41.04
2022-08-07T19:38:16.722Z,41.32
2022-08-07T19:40:51.627Z,41.45
2022-08-07T19:43:43.990Z,41.67
2022-08-07T19:46:30.925Z,41.98
2022-08-07T19:49:07.240Z,42.14
2022-08-07T19:51:50.687Z,42.33
2022-08-07T19:54:31.419Z,42.35
2022-08-07T19:58:00.892Z,42.61
2022-08-07T20:00:08.941Z,42.90
2022-08-07T20:02:51.634Z,42.96
2022-08-07T20:05:29.190Z,43.06
2022-08-07T20:08:32.744Z,43.38
2022-08-07T20:11:09.989Z,43.60
2022-08-07T20:13:46.581Z,43.72
2022-08-07T20:16:35.547Z,43.92
2022-08-07T20:19:14.617Z,44.14
2022-08-07T20:21:48.449Z,44.40
2022-08-07T20:24:28.879Z,44.49
2022-08-07T20:27:07.629Z,44.68
2022-08-07T20:29:59.429Z,44.90
2022-08-07T20:32:41.198Z,45.14
2022-08-07T20:35:26.441Z,45.32
2022-08-07T20:38:00.858Z,45.51
2022-08-07T20:40:40.562Z,45.72
2022-08-07T20:43:19.797Z,45.93
2022-08-07T20:46:27.011Z,46.14
2022-08-07T20:49:53.902Z,46.22
2022-08-07T20:51:52.164Z,46.42
2022-08-07T20:54:32.191Z,46.62
2022-08-07T20:57:10.332Z,46.74
2022-08-07T21:00:07.667Z,46.83
2022-08-07T21:03:04.009Z,46.86
2022-08-07T21:05:55.876Z,46.96
2022-08-07T21:08:40.738Z,47.04
2022-08-07T21:11:21.931Z,47.20
2022-08-07T21:14:31.896Z,47.26
2022-08-07T21:18:03.121Z,47.40
2022-08-07T21:20:06.142Z,47.37
2022-08-07T21:22:51.236Z,47.45
2022-08-07T21:25:39.224Z,47.46
2022-08-07T21:28:19.016Z,47.59
2022-08-07T21:32:42.523Z,47.76
2022-08-07T21:34:46.215Z,47.85
2022-08-07T21:37:58.384Z,48.10
2022-08-07T21:40:39.384Z,48.26
2022-08-07T21:43:22.823Z,48.46
2022-08-07T21:46:10.300Z,48.34
2022-08-07T21:48:57.442Z,48.44
2022-08-07T21:51:51.104Z,48.58
2022-08-07T21:54:34.133Z,48.82
2022-08-07T21:57:31.299Z,48.95
2022-08-07T22:00:23.226Z,49.21
2022-08-07T22:03:09.831Z,49.35
2022-08-07T22:05:51.143Z,49.61
2022-08-07T22:08:24.949Z,49.82
2022-08-07T22:11:04.802Z,49.98
2022-08-07T22:13:52.899Z,50.16
2022-08-07T22:16:46.585Z,50.42
2022-08-07T22:19:29.887Z,50.61
2022-08-07T22:22:20.870Z,50.91
2022-08-07T22:25:13.605Z,51.04
2022-08-07T22:28:29.897Z,51.13
2022-08-07T22:30:58.752Z,51.45
2022-08-07T22:33:57.168Z,51.50
2022-08-07T22:36:46.303Z,51.57
2022-08-07T22:39:28.262Z,51.73
2022-08-07T22:42:19.822Z,51.86
2022-08-07T22:45:10.927Z,52.06
2022-08-07T22:48:54.886Z,52.03
2022-08-07T22:51:41.428Z,52.11
2022-08-07T22:54:35.044Z,52.29
2022-08-07T22:57:40.983Z,52.48
2022-08-07T23:00:21.515Z,52.66
2022-08-07T23:03:28.374Z,52.79
2022-08-07T23:06:27.146Z,52.88
2022-08-07T23:10:04.904Z,53.17
2022-08-07T23:12:38.787Z,53.48
2022-08-07T23:16:04.317Z,53.64
2022-08-07T23:18:26.482Z,53.92
2022-08-07T23:21:29.906Z,54.12
2022-08-07T23:24:38.690Z,54.47
2022-08-07T23:28:20.473Z,54.78
2022-08-07T23:30:45.769Z,54.94
2022-08-07T23:34:21.159Z,55.17
2022-08-07T23:37:20.193Z,55.40
2022-08-07T23:40:05.743Z,55.67
2022-08-07T23:42:53.313Z,55.91
2022-08-07T23:46:03.454Z,56.32
2022-08-07T23:49:16.834Z,56.54
2022-08-07T23:52:59.667Z,56.78
2022-08-07T23:54:57.055Z,57.14
2022-08-07T23:57:37.852Z,57.52
